• Join FlightAware (Why Join?)
  • Login
  • US Flag 
02:48AM EST


 

Airport Tracker/Info


-or-


 

Live Flight TrackerFlight Track Log ✈ N550SW ✈ 05-Jun-2014 ✈ KGAI - KACY

Flight Track Log - Related Links

Times and Time Zones

All times are in EDT time to prevent confusion due to time zone crossing. See the N550SW flight status page for this flight to view local times or setup timezone preferences in your user account.

Time Position Orientation Groundspeed Altitude Reporting Facility
EDT Latitude Longitude Course Direction KTS MPH feet Rate Location/Type
07:10PM 39.2167 -77.2000 360° North 132 152 3,300  Level Potomac TRACON
07:11PM 39.2500 -77.1500 49° Northeast 146 168 4,500 1,260 Climbing Potomac TRACON
07:12PM 39.2667 -77.1000 67° East 155 178 6,000 1,140 Climbing Potomac TRACON
07:13PM 39.2833 -77.0500 67° East 160 184 7,000 540 Climbing Potomac TRACON
07:14PM 39.2833 -76.9833 90° East 197 227 7,100  Climbing Potomac TRACON
07:15PM 39.2833 -76.9167 90° East 212 244 7,100  Level Potomac TRACON
07:16PM 39.2667 -76.8333 104° East 216 249 7,100  Level Potomac TRACON
07:17PM 39.2667 -76.7500 90° East 218 251 7,100 420 Level Potomac TRACON
07:18PM 39.2500 -76.6833 108° East 195 224 8,100 780 Climbing Potomac TRACON
07:19PM 39.2333 -76.6333 113° Southeast 199 229 8,700 480 Climbing Potomac TRACON
07:20PM 39.2167 -76.5500 104° East 206 237 9,100 180 Climbing Potomac TRACON
07:21PM 39.2000 -76.4833 108° East 220 253 9,100  Level Potomac TRACON
07:22PM 39.1833 -76.4000 104° East 227 261 9,100  Level Potomac TRACON
07:23PM 39.1667 -76.3167 104° East 234 269 9,100  Level Potomac TRACON
07:24PM 39.1500 -76.2333 104° East 232 267 9,100  Level Potomac TRACON
07:25PM 39.1667 -76.1500 76° East 229 264 9,100  Level Potomac TRACON
07:26PM 39.1667 -76.0667 90° East 227 261 9,100  Level Potomac TRACON
07:27PM 39.1667 -76.0000 90° East 225 259 9,100 -60 Level Potomac TRACON
07:29PM 39.1819 -75.8861 80° East 241 277 9,000 -60 Descending Washington Center
07:30PM 39.1903 -75.8086 82° East 230 265 9,000  Level Washington Center
07:31PM 39.1967 -75.7256 84° East 230 265 9,000  Level Washington Center
07:32PM 39.2050 -75.6478 82° East 225 259 9,000  Level Washington Center
07:33PM 39.2114 -75.5647 84° East 225 259 9,000  Level Washington Center
07:34PM 39.2197 -75.4817 83° East 225 259 9,000  Level Washington Center
07:35PM 39.2236 -75.3986 87° East 225 259 9,000  Level Washington Center
07:36PM 39.2319 -75.3156 83° East 225 259 9,000 -60 Level Washington Center
07:37PM 39.2419 -75.2350 81° East 230 265 8,900 -480 Descending Washington Center
07:38PM 39.2708 -75.1519 66° East 236 272 8,100 -480 Descending Washington Center
07:39PM 39.2997 -75.0714 65° Northeast 246 283 8,000 -420 Descending Washington Center
07:40PM 39.3222 -74.9881 71° East 246 283 7,300 -840 Descending Washington Center
07:41PM 39.3197 -74.8994 92° East 241 277 6,400 -1,260 Descending Washington Center
07:42PM 39.3150 -74.8136 94° East 236 272 4,800 -1,260 Descending Washington Center
07:43PM 39.3186 -74.7331 87° East 231 266 4,000 -840 Descending Washington Center
07:44PM 39.3389 -74.6578 71° East 226 260 3,200 -1,080 Descending Washington Center
07:45PM 39.3717 -74.5903 58° Northeast 221 254 1,900 -900 Descending Washington Center
07:46PM 39.4089 -74.5467 42° Northeast 201 231 1,400 -540 Descending Washington Center